Time;durP1;ratioP1;P1;durP2;ratioP2;P2;SDS_P1;SDS_P2;PMS_P1;PMS_P2;Temp;Humidity;BMP_temperature;BMP_pressure;BME280_temperature;BME280_humidity;BME280_pressure;Samples;Min_cycle;Max_cycle;Signal;HPM_P1;HPM_P2
2023/01/17 00:01:28;;;;;;;30.20;19.90;;;;;;;1.26;97.76;95803.69;105992;1290;138496;-72
2023/01/17 00:12:11;;;;;;;27.90;16.50;;;;;;;1.29;98.25;95796.28;106110;1289;138427;-71
2023/01/17 00:14:38;;;;;;;26.30;15.20;;;;;;;1.29;98.34;95790.71;105987;1290;138571;-71
2023/01/17 00:17:05;;;;;;;26.90;15.60;;;;;;;1.29;98.38;95792.53;106013;1290;138138;-71
2023/01/17 01:35:53;;;;;;;21.90;12.30;;;;;;;1.24;97.83;95774.87;106026;1290;138787;-71
2023/01/17 01:38:24;;;;;;;19.80;11.60;;;;;;;1.20;97.76;95772.05;106039;1290;138028;-71
2023/01/17 01:40:54;;;;;;;17.50;10.30;;;;;;;1.18;97.89;95772.02;106016;1290;138620;-71
2023/01/17 01:43:45;;;;;;;18.80;10.50;;;;;;;1.16;97.85;95768.09;106212;1270;25517;-71
2023/01/17 01:46:36;;;;;;;17.90;10.40;;;;;;;1.13;97.87;95763.30;106095;1291;22830;-71
2023/01/17 01:49:13;;;;;;;17.60;9.10;;;;;;;1.11;97.88;95748.32;106037;1291;137772;-71
2023/01/17 01:51:49;;;;;;;16.80;8.70;;;;;;;1.09;97.85;95747.55;106110;1267;137888;-72
2023/01/17 01:54:21;;;;;;;16.60;8.90;;;;;;;1.07;97.77;95752.34;106737;1291;137805;-72
2023/01/17 01:56:52;;;;;;;15.00;8.40;;;;;;;1.05;98.01;95755.16;106139;1291;137917;-71
2023/01/17 01:59:21;;;;;;;13.70;8.50;;;;;;;1.05;97.78;95755.33;106723;1291;138634;-72
2023/01/17 02:01:51;;;;;;;14.70;8.00;;;;;;;1.04;97.79;95750.39;106506;1267;138244;-72
2023/01/17 02:04:19;;;;;;;13.10;7.60;;;;;;;1.04;97.78;95750.22;108718;1290;22601;-72
2023/01/17 02:07:01;;;;;;;10.90;7.30;;;;;;;1.03;97.59;95748.55;106340;1291;137831;-72
2023/01/17 02:09:28;;;;;;;13.10;7.70;;;;;;;1.01;97.50;95752.23;105858;1291;137810;-72
2023/01/17 02:11:56;;;;;;;14.60;7.70;;;;;;;1.02;97.81;95755.89;105904;1290;137810;-72
2023/01/17 02:14:23;;;;;;;12.00;7.20;;;;;;;1.03;97.93;95756.27;105884;1273;137863;-71
2023/01/17 02:17:08;;;;;;;11.80;8.00;;;;;;;1.04;97.83;95759.29;105845;1291;139273;-72
2023/01/17 02:19:53;;;;;;;13.80;7.30;;;;;;;1.02;97.63;95754.55;105999;1291;22559;-74
2023/01/17 02:22:23;;;;;;;12.90;7.20;;;;;;;1.02;97.37;95754.00;106028;1267;25390;-72
2023/01/17 02:24:49;;;;;;;13.20;7.70;;;;;;;1.00;97.55;95751.03;105964;1290;138074;-72
2023/01/17 02:27:55;;;;;;;17.40;8.80;;;;;;;1.00;97.54;95758.59;105914;1284;138011;-72
2023/01/17 02:30:34;;;;;;;14.90;8.40;;;;;;;1.00;97.58;95757.14;106212;1281;137988;-73
2023/01/17 02:33:23;;;;;;;16.70;9.70;;;;;;;1.00;97.43;95751.99;106079;1289;138147;-72
2023/01/17 02:36:13;;;;;;;15.60;9.00;;;;;;;0.99;97.28;95749.95;106070;1289;138109;-72
2023/01/17 02:38:51;;;;;;;13.20;8.10;;;;;;;0.97;97.32;95747.20;105901;1291;138276;-72
2023/01/17 02:41:28;;;;;;;14.00;8.80;;;;;;;0.96;97.26;95741.51;105884;1288;138163;-72
2023/01/17 02:43:55;;;;;;;14.40;8.90;;;;;;;0.93;97.10;95743.98;106078;1270;138661;-72
2023/01/17 02:46:22;;;;;;;15.40;9.10;;;;;;;0.90;97.03;95752.20;106204;1288;22544;-73
2023/01/17 02:48:50;;;;;;;17.50;8.60;;;;;;;0.88;96.89;95757.86;106096;1289;138939;-72
2023/01/17 02:52:22;;;;;;;15.60;9.80;;;;;;;0.84;96.86;95759.54;106069;1289;138306;-72
2023/01/17 02:55:06;;;;;;;14.90;8.30;;;;;;;0.80;97.08;95755.69;104950;1283;138432;-73
2023/01/17 02:58:04;;;;;;;15.60;8.70;;;;;;;0.79;97.18;95756.42;105007;1302;137893;-73
2023/01/17 03:00:53;;;;;;;15.20;8.70;;;;;;;0.76;96.96;95759.27;104861;1301;138608;-73
2023/01/17 03:03:29;;;;;;;15.40;8.90;;;;;;;0.72;96.65;95761.70;104824;1280;138701;-73
2023/01/17 03:06:11;;;;;;;16.50;9.60;;;;;;;0.68;96.90;95765.50;104743;1303;137942;-73
2023/01/17 03:08:41;;;;;;;16.10;9.80;;;;;;;0.67;96.96;95766.23;104789;1302;138198;-74
2023/01/17 03:11:10;;;;;;;18.70;10.30;;;;;;;0.65;96.87;95765.61;105047;1302;138642;-74
2023/01/17 03:13:37;;;;;;;16.30;9.90;;;;;;;0.65;97.12;95768.52;105542;1295;23352;-74
2023/01/17 03:16:07;;;;;;;16.50;9.80;;;;;;;0.64;96.90;95769.77;105128;1300;139134;-74
2023/01/17 03:18:34;;;;;;;15.30;9.40;;;;;;;0.64;97.03;95773.89;105115;1295;138109;-74
2023/01/17 03:21:01;;;;;;;14.30;9.20;;;;;;;0.63;96.83;95779.15;105093;1300;138845;-74
2023/01/17 03:23:28;;;;;;;16.70;10.60;;;;;;;0.62;96.77;95778.39;105093;1280;138178;-75
2023/01/17 03:25:55;;;;;;;21.10;10.80;;;;;;;0.61;96.58;95785.97;105222;1301;141047;-75
2023/01/17 03:28:22;;;;;;;20.60;11.80;;;;;;;0.59;96.81;95793.19;105118;1301;24269;-75
2023/01/17 03:30:49;;;;;;;20.30;11.80;;;;;;;0.56;96.67;95797.43;105578;1289;137938;-75
2023/01/17 03:33:17;;;;;;;21.00;12.00;;;;;;;0.54;96.88;95801.80;106006;1288;140438;-74
2023/01/17 03:35:44;;;;;;;19.50;11.40;;;;;;;0.54;96.85;95807.46;105906;1268;139763;-74
2023/01/17 03:38:11;;;;;;;19.00;10.90;;;;;;;0.53;96.99;95809.08;105947;1290;139304;-75
2023/01/17 03:40:38;;;;;;;18.90;11.20;;;;;;;0.53;97.08;95813.61;106022;1290;22582;-75
2023/01/17 03:43:05;;;;;;;16.00;10.20;;;;;;;0.53;96.90;95820.74;105973;1290;138211;-75
2023/01/17 03:45:32;;;;;;;16.00;9.90;;;;;;;0.53;96.96;95817.36;105988;1289;139088;-75
2023/01/17 03:47:59;;;;;;;16.70;10.20;;;;;;;0.53;96.90;95802.04;106106;1286;138829;-75
2023/01/17 03:50:26;;;;;;;14.60;8.70;;;;;;;0.52;96.81;95801.07;106034;1288;138238;-75
2023/01/17 03:52:53;;;;;;;14.20;8.60;;;;;;;0.53;97.02;95806.81;106294;1277;139533;-76
2023/01/17 03:55:20;;;;;;;12.70;8.20;;;;;;;0.53;96.76;95808.10;106198;1270;22547;-76
2023/01/17 03:57:47;;;;;;;15.10;8.70;;;;;;;0.54;96.86;95810.05;106215;1289;139446;-76
2023/01/17 04:00:14;;;;;;;18.00;9.50;;;;;;;0.54;96.79;95812.23;106043;1289;137865;-76
2023/01/17 04:02:41;;;;;;;18.70;11.40;;;;;;;0.54;96.52;95817.80;105869;1290;138615;-76
2023/01/17 04:05:09;;;;;;;20.40;11.90;;;;;;;0.52;96.54;95820.19;105970;1270;139626;-76
2023/01/17 04:07:36;;;;;;;20.90;11.30;;;;;;;0.51;96.58;95823.65;106267;1289;22543;-77
2023/01/17 04:10:03;;;;;;;19.50;11.20;;;;;;;0.48;96.49;95823.87;106124;1288;139648;-77
2023/01/17 04:12:30;;;;;;;18.90;10.70;;;;;;;0.45;96.15;95825.27;106092;1285;138044;-77
2023/01/17 04:14:57;;;;;;;21.90;10.80;;;;;;;0.43;96.30;95831.84;106092;1281;138921;-78
2023/01/17 04:17:24;;;;;;;18.30;10.60;;;;;;;0.40;96.33;95831.52;106028;1289;138206;-78
2023/01/17 04:19:51;;;;;;;17.20;9.70;;;;;;;0.39;96.41;95834.61;106048;1268;138232;-78
2023/01/17 04:22:18;;;;;;;17.00;9.10;;;;;;;0.38;96.53;95832.89;106188;1288;22559;-78
2023/01/17 04:24:45;;;;;;;16.30;9.30;;;;;;;0.36;96.41;95828.27;106093;1265;138912;-79
2023/01/17 04:27:13;;;;;;;16.30;10.20;;;;;;;0.37;96.63;95828.43;105953;1289;137900;-79
2023/01/17 04:29:40;;;;;;;17.60;9.70;;;;;;;0.37;96.53;95825.54;105874;1283;138225;-79
2023/01/17 04:32:06;;;;;;;18.60;10.50;;;;;;;0.39;96.69;95824.98;106026;1289;139649;-79
2023/01/17 04:34:33;;;;;;;16.50;10.20;;;;;;;0.40;96.70;95820.55;106263;1289;24261;-79
2023/01/17 04:37:00;;;;;;;17.80;9.30;;;;;;;0.42;96.60;95821.01;106136;1270;137801;-79
2023/01/17 04:39:27;;;;;;;14.60;9.20;;;;;;;0.42;96.62;95818.59;106088;1288;138324;-79
2023/01/17 04:41:54;;;;;;;14.40;9.10;;;;;;;0.42;96.66;95821.16;106083;1289;138084;-80
2023/01/17 04:44:21;;;;;;;16.20;9.20;;;;;;;0.42;96.45;95822.17;105894;1289;200336;-81
2023/01/17 04:46:48;;;;;;;14.60;8.90;;;;;;;0.42;96.65;95821.64;106038;1267;138973;-81
2023/01/17 04:49:15;;;;;;;15.10;9.50;;;;;;;0.42;96.62;95819.83;106169;1289;22565;-80
2023/01/17 04:51:42;;;;;;;18.30;9.50;;;;;;;0.43;96.51;95823.70;106730;1289;138782;-80
2023/01/17 04:54:09;;;;;;;14.20;9.10;;;;;;;0.44;96.68;95824.13;106676;1289;139710;-80
2023/01/17 04:56:36;;;;;;;14.50;9.00;;;;;;;0.45;96.80;95825.60;106744;1282;137900;-80
2023/01/17 04:59:03;;;;;;;15.70;9.20;;;;;;;0.46;96.72;95825.04;106605;1289;138008;-80
2023/01/17 05:01:30;;;;;;;16.20;9.70;;;;;;;0.48;96.98;95827.29;106577;1289;23422;-80
2023/01/17 05:03:56;;;;;;;17.70;10.40;;;;;;;0.50;96.74;95827.98;106536;1290;138974;-80
2023/01/17 05:06:23;;;;;;;20.10;11.20;;;;;;;0.53;96.91;95827.91;106758;1270;138034;-80
2023/01/17 05:08:50;;;;;;;19.00;11.40;;;;;;;0.56;96.93;95829.77;106639;1290;138967;-80
2023/01/17 05:11:17;;;;;;;19.60;11.10;;;;;;;0.59;96.80;95826.77;106696;1282;138615;-80
2023/01/17 05:13:47;;;;;;;15.80;9.70;;;;;;;0.62;96.78;95830.02;106793;1282;22923;-80
2023/01/17 05:16:16;;;;;;;;;;;;;;;0.63;96.66;95831.96;106735;1267;22621;-80
2023/01/17 05:18:43;;;;;;;16.90;9.90;;;;;;;0.65;96.72;95830.07;106456;1284;124037;-80
2023/01/17 05:21:10;;;;;;;20.30;10.50;;;;;;;0.66;96.61;95830.40;106415;1291;137908;-80
2023/01/17 05:23:37;;;;;;;20.90;10.70;;;;;;;0.67;96.81;95828.48;106490;1291;138186;-80
2023/01/17 05:26:04;;;;;;;15.20;9.10;;;;;;;0.68;96.84;95830.79;106754;1283;138198;-80
2023/01/17 05:28:31;;;;;;;15.00;8.30;;;;;;;0.70;96.80;95835.49;106927;1285;22775;-80
2023/01/17 05:30:58;;;;;;;14.80;8.50;;;;;;;0.72;96.78;95834.23;106816;1285;137953;-80
2023/01/17 05:33:25;;;;;;;17.50;9.40;;;;;;;0.76;96.62;95828.11;106839;1285;138202;-80
2023/01/17 05:35:52;;;;;;;16.10;9.30;;;;;;;0.79;96.59;95826.65;106867;1285;138609;-80
2023/01/17 05:38:19;;;;;;;12.90;8.50;;;;;;;0.81;96.47;95825.52;106935;1267;138357;-80
2023/01/17 05:40:45;;;;;;;14.90;8.50;;;;;;;0.83;96.55;95822.79;106890;1279;139346;-80
2023/01/17 05:43:12;;;;;;;13.90;7.80;;;;;;;0.83;96.39;95818.20;107039;1285;22551;-79
2023/01/17 05:45:39;;;;;;;12.70;8.50;;;;;;;0.84;96.13;95820.65;106967;1283;138718;-79
2023/01/17 05:48:08;;;;;;;14.10;8.70;;;;;;;0.83;96.10;95817.70;106888;1285;139040;-80
2023/01/17 05:50:37;;;;;;;15.30;8.40;;;;;;;0.82;96.07;95808.21;106777;1286;137889;-79
2023/01/17 05:53:07;;;;;;;14.70;8.60;;;;;;;0.82;96.16;95806.28;106998;1283;139462;-80
2023/01/17 05:55:35;;;;;;;16.00;9.90;;;;;;;0.82;96.34;95803.92;107191;1284;22514;-80
2023/01/17 05:58:03;;;;;;;18.10;10.70;;;;;;;0.82;96.26;95798.83;107172;1266;137795;-80
2023/01/17 06:00:30;;;;;;;16.80;11.00;;;;;;;0.81;96.17;95796.52;107177;1284;139014;-79
2023/01/17 06:02:59;;;;;;;17.20;9.80;;;;;;;0.80;95.92;95803.04;107414;1278;137976;-80
2023/01/17 06:05:27;;;;;;;19.20;10.40;;;;;;;0.80;96.16;95811.34;107268;1285;138133;-80
2023/01/17 06:07:55;;;;;;;20.50;10.00;;;;;;;0.79;96.09;95818.02;107426;1276;138812;-80
2023/01/17 06:10:23;;;;;;;15.10;8.50;;;;;;;0.78;95.99;95822.88;107280;1284;22642;-79
2023/01/17 06:13:00;;;;;;;15.90;9.30;;;;;;;0.76;95.84;95825.59;106267;1277;138157;-79
2023/01/17 06:15:27;;;;;;;14.70;8.40;;;;;;;0.75;95.88;95825.80;108878;1277;138682;-79
2023/01/17 06:17:54;;;;;;;20.10;9.70;;;;;;;0.73;95.77;95821.60;107613;1263;139135;-80
2023/01/17 06:20:21;;;;;;;13.50;8.50;;;;;;;0.73;95.81;95819.39;107516;1276;139547;-80
2023/01/17 06:22:48;;;;;;;15.70;9.90;;;;;;;0.73;95.89;95820.09;107378;1276;139810;-80
2023/01/17 06:25:15;;;;;;;16.50;10.20;;;;;;;0.74;95.78;95821.71;108143;1277;22389;-79
2023/01/17 06:27:42;;;;;;;17.10;10.50;;;;;;;0.73;95.53;95828.13;107818;1277;137888;-80
2023/01/17 06:30:09;;;;;;;24.40;16.00;;;;;;;0.65;94.42;95827.32;107621;1277;138968;-80
2023/01/17 06:32:37;;;;;;;22.90;14.60;;;;;;;0.51;94.00;95826.92;107390;1277;139851;-80
2023/01/17 06:35:04;;;;;;;24.10;14.00;;;;;;;0.39;93.81;95831.62;106951;1284;139421;-80
2023/01/17 06:37:31;;;;;;;25.00;14.60;;;;;;;0.27;94.20;95835.93;107599;1276;25284;-79
2023/01/17 06:39:57;;;;;;;18.50;11.70;;;;;;;0.23;94.79;95833.13;107102;1284;137916;-79
2023/01/17 06:42:24;;;;;;;22.70;12.30;;;;;;;0.22;95.35;95841.80;107185;1283;138544;-79
2023/01/17 06:44:51;;;;;;;20.50;11.30;;;;;;;0.22;95.62;95849.23;107166;1269;140097;-80
2023/01/17 06:47:18;;;;;;;25.60;14.00;;;;;;;0.19;95.27;95848.87;107178;1263;22650;-80
2023/01/17 06:49:45;;;;;;;24.10;13.30;;;;;;;0.16;95.55;95850.44;107198;1270;22540;-80
2023/01/17 06:52:13;;;;;;;22.70;12.10;;;;;;;0.19;95.92;95852.94;106837;1282;138779;-79
2023/01/17 06:54:41;;;;;;;21.60;12.10;;;;;;;0.22;96.24;95844.36;107299;1284;22642;-79
2023/01/17 06:57:08;;;;;;;20.20;11.10;;;;;;;0.24;96.26;95842.85;107298;1276;138665;-79
2023/01/17 06:59:35;;;;;;;18.50;9.90;;;;;;;0.28;96.47;95842.43;107205;1263;24227;-79
2023/01/17 07:02:02;;;;;;;14.00;9.10;;;;;;;0.32;96.60;95836.77;107040;1285;139127;-79
2023/01/17 07:04:29;;;;;;;16.10;9.60;;;;;;;0.38;96.80;95837.64;106963;1285;139877;-78
2023/01/17 07:06:55;;;;;;;15.80;9.50;;;;;;;0.44;96.76;95836.02;107632;1285;22575;-79
2023/01/17 07:09:22;;;;;;;17.20;11.10;;;;;;;0.51;96.82;95834.68;107181;1265;138289;-79
2023/01/17 07:11:50;;;;;;;18.30;10.70;;;;;;;0.57;96.64;95838.68;107253;1284;25499;-78
2023/01/17 07:14:17;;;;;;;17.30;10.20;;;;;;;0.64;96.63;95840.27;107172;1279;139282;-79
2023/01/17 07:16:44;;;;;;;17.70;10.10;;;;;;;0.71;96.39;95840.79;107710;1279;24258;-79
2023/01/17 07:19:11;;;;;;;12.80;8.00;;;;;;;0.78;96.33;95839.88;107454;1267;22611;-79
2023/01/17 07:21:39;;;;;;;19.10;11.30;;;;;;;0.88;97.40;95835.03;107153;1285;138397;-79
2023/01/17 07:24:07;;;;;;;21.40;11.00;;;;;;;0.99;96.81;95834.19;107663;1278;22534;-80
2023/01/17 07:26:36;;;;;;;19.30;10.40;;;;;;;1.04;96.16;95833.18;107399;1279;139498;-79
2023/01/17 07:29:04;;;;;;;19.30;11.30;;;;;;;1.08;95.65;95836.92;107359;1263;22567;-79
2023/01/17 07:31:36;;;;;;;19.30;10.80;;;;;;;1.10;95.40;95839.42;107438;1284;22550;-79
2023/01/17 07:34:03;;;;;;;19.60;11.40;;;;;;;1.11;95.13;95838.48;107812;1284;139151;-79
2023/01/17 07:36:31;;;;;;;17.10;10.40;;;;;;;1.14;95.18;95833.25;107419;1284;22724;-79
2023/01/17 07:38:58;;;;;;;21.00;11.70;;;;;;;1.20;95.52;95836.48;108863;1263;138465;-80
2023/01/17 07:41:25;;;;;;;20.20;11.70;;;;;;;1.27;95.48;95836.84;107469;1285;24240;-79
2023/01/17 07:43:52;;;;;;;21.20;11.00;;;;;;;1.30;95.14;95835.47;107212;1284;25490;-79
2023/01/17 07:46:19;;;;;;;19.40;11.20;;;;;;;1.34;94.88;95836.92;107187;1285;138480;-80
2023/01/17 07:48:46;;;;;;;19.90;10.80;;;;;;;1.37;94.79;95836.84;107276;1281;22538;-80
2023/01/17 07:51:13;;;;;;;18.00;11.40;;;;;;;1.40;94.44;95834.83;107175;1285;138352;-80
2023/01/17 07:53:39;;;;;;;20.70;11.10;;;;;;;1.41;94.37;95835.45;107199;1285;23882;-80
2023/01/17 07:56:06;;;;;;;17.90;11.20;;;;;;;1.45;94.36;95840.79;107183;1284;139459;-80
2023/01/17 07:58:34;;;;;;;19.30;11.60;;;;;;;1.47;94.33;95842.95;107126;1273;139592;-80
2023/01/17 08:01:04;;;;;;;20.60;12.40;;;;;;;1.49;94.28;95848.57;108005;1266;22534;-80
2023/01/17 08:03:34;;;;;;;21.30;12.20;;;;;;;1.50;94.09;95851.03;107264;1285;137840;-81
2023/01/17 08:06:02;;;;;;;20.40;13.00;;;;;;;1.51;94.01;95853.89;107253;1285;22608;-80
2023/01/17 08:08:29;;;;;;;25.30;14.30;;;;;;;1.50;94.06;95858.27;107020;1285;138606;-81
2023/01/17 08:10:56;;;;;;;25.30;14.40;;;;;;;1.50;93.87;95859.07;107206;1264;22954;-79
2023/01/17 08:13:23;;;;;;;24.20;14.40;;;;;;;1.49;93.90;95862.92;107317;1284;22544;-79
2023/01/17 08:15:50;;;;;;;26.30;15.20;;;;;;;1.50;94.02;95870.88;107164;1284;139532;-79
2023/01/17 08:18:17;;;;;;;28.50;17.40;;;;;;;1.51;94.16;95873.73;107646;1284;22599;-84
2023/01/17 08:20:45;;;;;;;27.90;17.20;;;;;;;1.52;94.03;95877.02;106951;1266;139577;-79
2023/01/17 08:23:11;;;;;;;29.80;16.60;;;;;;;1.51;94.00;95879.36;106465;1278;22530;-77
2023/01/17 08:25:39;;;;;;;29.40;18.10;;;;;;;1.51;93.75;95882.48;106925;1285;24326;-76
2023/01/17 08:28:05;;;;;;;33.50;19.60;;;;;;;1.50;93.89;95885.52;106809;1286;138450;-77
2023/01/17 08:30:34;;;;;;;35.50;21.30;;;;;;;1.51;94.00;95886.73;106524;1265;22541;-77
2023/01/17 08:33:00;;;;;;;33.90;19.20;;;;;;;1.53;94.06;95888.29;106589;1285;138712;-77
2023/01/17 08:35:27;;;;;;;34.40;20.10;;;;;;;1.55;94.14;95892.48;106869;1278;22578;-78
2023/01/17 08:37:56;;;;;;;36.20;20.30;;;;;;;1.57;94.26;95896.80;106939;1278;26650;-78
2023/01/17 08:40:23;;;;;;;31.80;19.40;;;;;;;1.60;94.22;95897.06;107793;1279;138828;-77
2023/01/17 08:42:58;;;;;;;35.90;19.40;;;;;;;1.63;94.14;95899.98;108079;1278;22562;-76
2023/01/17 08:45:26;;;;;;;32.10;18.70;;;;;;;1.66;94.19;95900.73;107427;1278;139226;-76
2023/01/17 08:47:53;;;;;;;29.30;17.90;;;;;;;1.71;94.23;95904.59;108191;1278;25424;-75
2023/01/17 08:50:19;;;;;;;34.90;18.60;;;;;;;1.74;94.19;95906.60;106782;1266;140084;-76
2023/01/17 08:52:47;;;;;;;28.30;17.20;;;;;;;1.79;94.03;95912.13;106432;1285;23373;-75
2023/01/17 08:55:15;;;;;;;25.20;16.10;;;;;;;1.83;94.07;95912.55;106402;1285;24311;-75
2023/01/17 08:57:42;;;;;;;29.90;19.10;;;;;;;1.88;94.13;95916.84;106178;1285;138772;-75
2023/01/17 09:00:10;;;;;;;28.40;17.80;;;;;;;1.93;94.01;95919.35;106394;1263;24227;-76
2023/01/17 09:02:37;;;;;;;28.80;17.70;;;;;;;1.98;94.23;95922.63;106363;1269;138830;-76
2023/01/17 09:05:04;;;;;;;25.90;17.20;;;;;;;2.03;94.13;95925.32;107798;1277;22812;-75
2023/01/17 09:07:31;;;;;;;26.10;16.30;;;;;;;2.09;94.14;95926.13;107469;1270;24294;-76
2023/01/17 09:09:58;;;;;;;30.50;17.50;;;;;;;2.15;94.08;95931.88;106765;1279;139381;-75
2023/01/17 09:12:25;;;;;;;28.40;16.40;;;;;;;2.22;94.23;95927.70;107352;1265;24252;-75
2023/01/17 09:14:52;;;;;;;28.80;17.60;;;;;;;2.29;94.10;95929.64;106711;1274;139836;-76
2023/01/17 09:17:19;;;;;;;27.10;14.80;;;;;;;2.36;93.96;95932.70;108962;1276;22111;-76
2023/01/17 09:19:47;;;;;;;18.50;12.20;;;;;;;2.40;93.29;95934.73;107535;1282;23158;-75
2023/01/17 09:22:14;;;;;;;21.20;12.00;;;;;;;2.46;92.82;95934.14;108804;1266;137896;-75
2023/01/17 09:24:41;;;;;;;17.60;11.40;;;;;;;2.54;92.61;95935.60;108779;1279;25402;-75
2023/01/17 09:27:08;;;;;;;20.10;12.50;;;;;;;2.61;92.52;95937.65;106941;1277;138953;-75
2023/01/17 09:29:35;;;;;;;23.10;14.50;;;;;;;2.71;92.66;95931.11;107221;1276;22797;-74
2023/01/17 09:32:02;;;;;;;26.50;16.90;;;;;;;2.80;92.99;95931.77;107166;1265;138055;-74
2023/01/17 09:34:29;;;;;;;26.90;16.90;;;;;;;2.88;92.98;95933.81;107072;1273;138019;-74
2023/01/17 09:36:56;;;;;;;30.90;17.60;;;;;;;2.95;92.94;95934.83;106707;1279;24370;-74
2023/01/17 09:39:23;;;;;;;29.90;17.20;;;;;;;3.00;93.13;95931.15;106488;1279;139159;-73
2023/01/17 09:42:05;;;;;;;31.00;18.50;;;;;;;3.07;93.09;95933.52;107070;1265;23284;-74
2023/01/17 09:44:44;;;;;;;32.10;17.60;;;;;;;3.13;93.02;95933.92;108638;1282;138974;-74
2023/01/17 09:47:41;;;;;;;31.30;18.80;;;;;;;3.17;92.64;95932.98;107713;1282;22688;-73
2023/01/17 09:50:31;;;;;;;34.00;18.80;;;;;;;3.22;92.35;95932.91;108317;1274;138465;-73
2023/01/17 09:53:04;;;;;;;29.60;16.90;;;;;;;3.28;92.33;95933.27;109343;1265;22249;-74
2023/01/17 09:55:40;;;;;;;38.30;19.10;;;;;;;3.32;92.20;95936.13;109675;1278;23194;-73
2023/01/17 09:58:19;;;;;;;32.50;18.20;;;;;;;3.39;92.47;95931.00;107058;1276;139838;-73
2023/01/17 10:01:02;;;;;;;29.50;18.40;;;;;;;3.47;92.02;95930.39;106964;1278;22560;-73
2023/01/17 10:03:50;;;;;;;27.70;17.50;;;;;;;3.54;92.03;95932.36;106849;1267;138654;-73
2023/01/17 10:06:23;;;;;;;27.80;16.30;;;;;;;3.65;91.95;95933.64;108839;1278;22459;-73
2023/01/17 10:08:58;;;;;;;22.20;14.80;;;;;;;3.74;91.80;95932.29;106674;1273;138157;-72
2023/01/17 10:11:28;;;;;;;26.10;14.60;;;;;;;3.83;91.35;95929.73;106590;1263;22540;-73
2023/01/17 10:14:14;;;;;;;23.60;14.10;;;;;;;3.91;91.10;95927.55;107516;1270;22539;-73
2023/01/17 10:17:00;;;;;;;22.20;13.30;;;;;;;4.01;90.61;95928.91;107311;1285;138965;-73
2023/01/17 10:19:42;;;;;;;23.40;15.10;;;;;;;4.11;90.23;95933.36;106372;1285;25374;-73
2023/01/17 10:22:31;;;;;;;24.10;14.40;;;;;;;4.18;89.68;95928.58;106325;1265;137855;-73
2023/01/17 10:25:14;;;;;;;25.50;14.40;;;;;;;4.28;89.41;95930.11;106612;1281;25831;-73
2023/01/17 10:27:55;;;;;;;21.00;14.30;;;;;;;4.40;89.29;95934.27;106445;1281;139258;-73
2023/01/17 10:30:27;;;;;;;26.40;15.10;;;;;;;4.50;89.00;95931.00;107093;1275;24324;-72
2023/01/17 10:32:58;;;;;;;27.10;15.20;;;;;;;4.60;88.42;95931.38;106444;1275;138205;-73
2023/01/17 10:35:31;;;;;;;20.50;12.70;;;;;;;4.69;88.14;95936.33;106623;1281;22553;-73
2023/01/17 10:38:02;;;;;;;21.70;13.20;;;;;;;4.76;87.38;95938.87;106606;1281;25281;-73
2023/01/17 10:40:39;;;;;;;27.60;14.20;;;;;;;4.80;87.06;95940.54;106796;1275;139199;-74
2023/01/17 10:43:43;;;;;;;22.50;14.10;;;;;;;4.83;86.75;95946.48;107614;1263;22552;-74
2023/01/17 10:46:36;;;;;;;31.30;16.90;;;;;;;4.89;87.06;95951.30;106771;1276;138384;-72
2023/01/17 10:49:03;;;;;;;26.10;15.80;;;;;;;4.95;87.02;95954.02;106738;1280;26558;-72
2023/01/17 10:51:49;;;;;;;26.30;16.10;;;;;;;5.00;87.01;95957.30;106648;1273;139549;-72
2023/01/17 10:55:02;;;;;;;25.50;15.60;;;;;;;5.06;87.01;95953.41;106764;1263;23275;-73
2023/01/17 10:57:47;;;;;;;23.40;14.90;;;;;;;5.14;86.78;95947.84;107997;1269;138739;-72
2023/01/17 11:01:01;;;;;;;22.40;13.00;;;;;;;5.21;86.69;95950.19;106649;1280;22544;-73
2023/01/17 11:03:29;;;;;;;22.50;12.90;;;;;;;5.27;86.25;95948.73;106352;1262;138844;-73
2023/01/17 11:06:18;;;;;;;21.50;13.20;;;;;;;5.34;86.11;95954.92;106629;1276;23938;-73
2023/01/17 11:08:58;;;;;;;19.50;11.70;;;;;;;5.40;85.70;95959.12;106405;1282;138587;-73
2023/01/17 11:11:35;;;;;;;18.50;9.00;;;;;;;5.46;85.47;95959.86;106655;1281;24206;-73
2023/01/17 11:14:15;;;;;;;16.80;9.30;;;;;;;5.54;84.83;95968.11;106760;1263;22595;-72
2023/01/17 11:16:42;;;;;;;16.00;8.40;;;;;;;5.62;83.90;95965.38;106493;1282;137498;-73
2023/01/17 11:19:19;;;;;;;14.50;8.20;;;;;;;5.71;83.64;95962.60;108260;1272;23322;-73
2023/01/17 11:21:52;;;;;;;15.50;8.90;;;;;;;5.78;83.06;95957.45;107302;1272;137877;-73
2023/01/17 11:24:27;;;;;;;12.90;7.00;;;;;;;5.86;82.27;95955.96;106896;1262;138061;-73
2023/01/17 11:26:55;;;;;;;13.70;7.80;;;;;;;5.89;80.53;95956.80;107371;1275;137898;-73
2023/01/17 11:29:22;;;;;;;15.40;8.20;;;;;;;5.90;80.04;95964.09;108515;1272;22559;-73
2023/01/17 11:31:49;;;;;;;12.50;7.20;;;;;;;5.92;80.37;95965.05;106487;1278;137797;-73
2023/01/17 11:34:22;;;;;;;11.10;6.30;;;;;;;5.96;79.01;95963.66;106887;1262;137847;-72
2023/01/17 11:37:17;;;;;;;12.30;6.20;;;;;;;5.97;78.74;95956.65;106526;1281;138055;-73
2023/01/17 11:39:48;;;;;;;13.30;6.50;;;;;;;5.99;78.18;95954.14;106480;1283;137971;-72
2023/01/17 11:42:36;;;;;;;9.90;6.20;;;;;;;5.99;77.14;95953.23;106456;1282;138181;-73
2023/01/17 11:45:23;;;;;;;13.70;6.20;;;;;;;6.00;77.82;95949.71;106494;1282;138105;-74
2023/01/17 11:48:15;;;;;;;9.40;5.40;;;;;;;6.03;77.39;95946.55;106798;1275;22539;-75
2023/01/17 11:50:44;;;;;;;10.70;5.60;;;;;;;6.06;76.98;95946.55;106923;1282;137597;-71
2023/01/17 11:53:35;;;;;;;10.40;5.40;;;;;;;6.07;75.59;95946.92;107103;1276;22534;-72
2023/01/17 11:56:07;;;;;;;12.60;5.20;;;;;;;6.09;75.95;95943.02;106891;1265;139390;-73
2023/01/17 11:58:39;;;;;;;11.80;6.10;;;;;;;6.09;75.10;95936.54;106818;1282;24253;-72
2023/01/17 12:01:25;;;;;;;8.70;4.60;;;;;;;6.09;74.58;95942.52;106863;1275;138224;-72
2023/01/17 12:04:01;;;;;;;9.10;4.80;;;;;;;6.11;74.11;95942.64;106718;1276;138755;-74
2023/01/17 12:06:28;;;;;;;9.70;5.20;;;;;;;6.13;73.92;95936.64;106470;1282;139759;-73
2023/01/17 12:09:21;;;;;;;11.60;5.70;;;;;;;6.13;73.05;95932.95;106516;1282;139107;-73
2023/01/17 12:15:03;;;;;;;8.30;4.70;;;;;;;6.16;72.20;95922.88;106520;1270;138041;-73
2023/01/17 12:18:04;;;;;;;9.70;4.90;;;;;;;6.17;72.45;95914.60;106633;1280;22541;-73
2023/01/17 12:21:24;;;;;;;8.60;4.40;;;;;;;6.20;71.69;95911.41;106444;1282;138126;-73
2023/01/17 12:24:16;;;;;;;;;;;;;;;6.23;72.07;95913.42;106405;1287;22544;-73
2023/01/17 12:27:04;;;;;;;9.50;5.10;;;;;;;6.27;72.67;95915.13;106882;1279;125686;-73
2023/01/17 12:29:42;;;;;;;10.50;5.20;;;;;;;6.34;72.00;95920.77;108341;1282;22744;-73
2023/01/17 12:32:25;;;;;;;9.80;4.60;;;;;;;6.38;71.76;95915.89;106619;1287;137704;-73
2023/01/17 12:35:00;;;;;;;9.60;5.30;;;;;;;6.43;71.86;95916.44;106208;1266;26644;-73
2023/01/17 12:37:36;;;;;;;13.90;6.90;;;;;;;6.48;71.84;95920.18;106068;1287;137446;-73
2023/01/17 12:40:33;;;;;;;11.10;5.80;;;;;;;6.53;72.21;95925.51;106038;1287;138246;-72
2023/01/17 12:43:15;;;;;;;8.20;5.00;;;;;;;6.60;71.97;95919.88;106061;1287;138314;-74
2023/01/17 12:45:46;;;;;;;7.80;5.20;;;;;;;6.62;71.40;95925.27;106073;1268;138006;-73
2023/01/17 12:48:19;;;;;;;9.70;4.70;;;;;;;6.64;70.83;95918.06;106179;1287;22560;-73
2023/01/17 12:50:57;;;;;;;7.40;3.70;;;;;;;6.66;69.94;95920.00;106914;1282;137973;-73
2023/01/17 12:53:53;;;;;;;7.80;4.00;;;;;;;6.65;69.80;95917.02;106702;1281;24196;-73
2023/01/17 12:56:27;;;;;;;9.50;4.40;;;;;;;6.67;70.38;95921.17;106060;1287;137266;-74
2023/01/17 12:59:02;;;;;;;10.00;4.90;;;;;;;6.70;70.80;95924.89;106829;1282;24225;-73
2023/01/17 13:01:41;;;;;;;6.40;3.90;;;;;;;6.73;70.42;95923.17;106693;1276;138828;-74
2023/01/17 13:04:36;;;;;;;5.70;3.50;;;;;;;6.73;69.74;95928.42;107450;1275;137311;-74
2023/01/17 13:07:21;;;;;;;7.40;3.40;;;;;;;6.73;68.73;95927.40;107752;1262;139325;-73
2023/01/17 13:09:54;;;;;;;4.60;2.80;;;;;;;6.73;68.71;95928.98;107179;1278;137804;-73